Jessore, Bangladesh
Current Conditions -  °F | °C
As of 7:50 AM on Tuesday 25 Nov 2014 (Local Time) from VECC Reporting Station
Haze Haze  
Wind Chill: 63°   Ceiling: Unl
Heat Index: 63°   Visibility: 0.87mi
Dew Point: 57°   Wind: 0mph
Humidity: 82%   Direction: NA
Pressure: 29.94"   Gusts: NA
Location:  23.15°N, 89.21°E
Report Text: VECC 250150Z 00000KT 1400 R19L/1700 R19LMD/1500 R01R/1500R19R/P2000 BR NSC 17/14 Q1014 BECMG 1500 BR
Loading
Personal Weather Stations






























Interactive Weather Map New forecast layout! Learn more

10-Day Weather Forecast

Advertisements
Track Severe Weather on mobile